地図

経路データ

SID SEASON NUMBER BASIN SUBBASIN NAME ISO_TIME NATURE LAT LON WMO_WIND WMO_PRES WMO_AGENCY TRACK_TYPE DIST2LAND LANDFALL IFLAG USA_AGENCY USA_ATCF_ID USA_LAT USA_LON USA_RECORD USA_STATUS USA_WIND USA_PRES USA_SSHS USA_R34_NE USA_R34_SE USA_R34_SW USA_R34_NW USA_R50_NE USA_R50_SE USA_R50_SW USA_R50_NW USA_R64_NE USA_R64_SE USA_R64_SW USA_R64_NW USA_POCI USA_ROCI USA_RMW USA_EYE TOKYO_LAT TOKYO_LON TOKYO_GRADE TOKYO_WIND TOKYO_PRES TOKYO_R50_DIR TOKYO_R50_LONG TOKYO_R50_SHORT TOKYO_R30_DIR TOKYO_R30_LONG TOKYO_R30_SHORT TOKYO_LAND CMA_LAT CMA_LON CMA_CAT CMA_WIND CMA_PRES HKO_LAT HKO_LON HKO_CAT HKO_WIND HKO_PRES NEWDELHI_LAT NEWDELHI_LON NEWDELHI_GRADE NEWDELHI_WIND NEWDELHI_PRES NEWDELHI_CI NEWDELHI_DP NEWDELHI_POCI REUNION_LAT REUNION_LON REUNION_TYPE REUNION_WIND REUNION_PRES REUNION_TNUM REUNION_CI REUNION_RMW REUNION_R34_NE REUNION_R34_SE REUNION_R34_SW REUNION_R34_NW REUNION_R50_NE REUNION_R50_SE REUNION_R50_SW REUNION_R50_NW REUNION_R64_NE REUNION_R64_SE REUNION_R64_SW REUNION_R64_NW BOM_LAT BOM_LON BOM_TYPE BOM_WIND BOM_PRES BOM_TNUM BOM_CI BOM_RMW BOM_R34_NE BOM_R34_SE BOM_R34_SW BOM_R34_NW BOM_R50_NE BOM_R50_SE BOM_R50_SW BOM_R50_NW BOM_R64_NE BOM_R64_SE BOM_R64_SW BOM_R64_NW BOM_ROCI BOM_POCI BOM_EYE BOM_POS_METHOD BOM_PRES_METHOD NADI_LAT NADI_LON NADI_CAT NADI_WIND NADI_PRES WELLINGTON_LAT WELLINGTON_LON WELLINGTON_WIND WELLINGTON_PRES DS824_LAT DS824_LON DS824_STAGE DS824_WIND DS824_PRES TD9636_LAT TD9636_LON TD9636_STAGE TD9636_WIND TD9636_PRES TD9635_LAT TD9635_LON TD9635_WIND TD9635_PRES TD9635_ROCI NEUMANN_LAT NEUMANN_LON NEUMANN_CLASS NEUMANN_WIND NEUMANN_PRES MLC_LAT MLC_LON MLC_CLASS MLC_WIND MLC_PRES USA_GUST BOM_GUST BOM_GUST_PER REUNION_GUST REUNION_GUST_PER USA_SEAHGT USA_SEARAD_NE USA_SEARAD_SE USA_SEARAD_SW USA_SEARAD_NW STORM_SPEED STORM_DIR
1971186N34285 1971 64 NA NA ARLENE 1971-07-04 12:00:00 TS 33.5000 -75.5000 25 hurdat_atl main 162 150 O_____________ hurdat_atl AL011971 33.5000 -75.5000 TD 25 -1 6 25
1971186N34285 1971 64 NA NA ARLENE 1971-07-04 15:00:00 TS 33.7550 -75.3577 main 142 141 P_____________ AL011971 33.7550 -75.3577 TD 25 -1 6 27
1971186N34285 1971 64 NA NA ARLENE 1971-07-04 18:00:00 TS 34.0000 -75.2000 25 hurdat_atl main 142 134 O_____________ hurdat_atl AL011971 34.0000 -75.2000 TD 25 -1 6 31
1971186N34285 1971 64 NA NA ARLENE 1971-07-04 21:00:00 TS 34.2350 -75.0147 main 142 136 P_____________ AL011971 34.2350 -75.0147 TD 25 -1 6 34
1971186N34285 1971 64 NA NA ARLENE 1971-07-05 00:00:00 TS 34.5000 -74.8000 25 hurdat_atl main 143 133 O_____________ hurdat_atl AL011971 34.5000 -74.8000 TD 25 -1 7 32
1971186N34285 1971 64 NA NA ARLENE 1971-07-05 03:00:00 TS 34.8349 -74.5649 main 133 126 P_____________ AL011971 34.8349 -74.5649 TD 27 -1 8 30
1971186N34285 1971 64 NA NA ARLENE 1971-07-05 06:00:00 TS 35.2000 -74.3000 30 hurdat_atl main 127 121 O_____________ hurdat_atl AL011971 35.2000 -74.3000 TD 30 -1 8 32
1971186N34285 1971 64 NA NA ARLENE 1971-07-05 09:00:00 TS 35.5424 -74.0220 main 139 136 P_____________ AL011971 35.5424 -74.0220 TD 30 -1 9 35
1971186N34285 1971 64 NA NA ARLENE 1971-07-05 12:00:00 TS 35.9000 -73.7000 30 hurdat_atl main 162 162 O_____________ hurdat_atl AL011971 35.9000 -73.7000 TD 30 -1 9 37
1971186N34285 1971 64 NA NA ARLENE 1971-07-05 15:00:00 TS 36.2848 -73.3369 main 205 205 P_____________ AL011971 36.2848 -73.3369 TD 37 0 10 39
1971186N34285 1971 64 NA NA ARLENE 1971-07-05 18:00:00 TS 36.7000 -72.9000 45 1001 hurdat_atl main 253 253 O_____________ hurdat_atl AL011971 36.7000 -72.9000 TS 45 1001 0 11 41
1971186N34285 1971 64 NA NA ARLENE 1971-07-05 21:00:00 TS 37.1418 -72.4165 main 271 266 P_____________ AL011971 37.1418 -72.4165 TS 45 0 13 44
1971186N34285 1971 64 NA NA ARLENE 1971-07-06 00:00:00 TS 37.6000 -71.8000 45 hurdat_atl main 298 298 O_____________ hurdat_atl AL011971 37.6000 -71.8000 TS 45 0 14 51
1971186N34285 1971 64 NA NA ARLENE 1971-07-06 03:00:00 TS 38.0351 -71.0015 main 330 324 P_____________ AL011971 38.0351 -71.0015 TS 45 0 16 56
1971186N34285 1971 64 NA NA ARLENE 1971-07-06 06:00:00 TS 38.5000 -70.1000 45 hurdat_atl main 333 302 O_____________ hurdat_atl AL011971 38.5000 -70.1000 TS 45 0 17 54
1971186N34285 1971 64 NA NA ARLENE 1971-07-06 09:00:00 TS 39.0334 -69.2507 main 302 269 P_____________ AL011971 39.0334 -69.2507 TS 47 0 18 52
1971186N34285 1971 64 NA NA ARLENE 1971-07-06 12:00:00 TS 39.6000 -68.3000 50 1003 hurdat_atl main 273 269 O_____________ hurdat_atl AL011971 39.6000 -68.3000 TS 50 1003 0 19 55
1971186N34285 1971 64 NA NA ARLENE 1971-07-06 15:00:00 TS 40.1488 -67.1806 main 294 294 P_____________ AL011971 40.1488 -67.1806 TS 52 1001 0 21 59
1971186N34285 1971 64 NA NA ARLENE 1971-07-06 18:00:00 TS 40.7000 -65.9000 55 1000 hurdat_atl main 311 260 O_____________ hurdat_atl AL011971 40.7000 -65.9000 TS 55 1000 0 23 62
1971186N34285 1971 64 NA NA ARLENE 1971-07-06 21:00:00 TS 41.2328 -64.5284 main 264 250 P_____________ AL011971 41.2328 -64.5284 TS 52 1000 0 24 63
1971186N34285 1971 64 NA NA ARLENE 1971-07-07 00:00:00 TS 41.8000 -63.0000 50 1000 hurdat_atl main 266 266 O_____________ hurdat_atl AL011971 41.8000 -63.0000 TS 50 1000 0 27 64
1971186N34285 1971 64 NA NA ARLENE 1971-07-07 03:00:00 TS 42.4129 -61.2701 main 282 262 P_____________ AL011971 42.4129 -61.2701 TS 47 1001 0 29 63
1971186N34285 1971 64 NA NA ARLENE 1971-07-07 06:00:00 TS 43.1000 -59.5000 45 1002 hurdat_atl main 265 264 O_____________ hurdat_atl AL011971 43.1000 -59.5000 TS 45 1002 0 29 60
1971186N34285 1971 64 NA NA ARLENE 1971-07-07 09:00:00 TS 43.8591 -57.8802 main 272 239 P_____________ AL011971 43.8591 -57.8802 TS 45 0 28 55
1971186N34285 1971 64 NA NA ARLENE 1971-07-07 12:00:00 TS 44.7000 -56.3000 45 hurdat_atl main 237 141 O_____________ hurdat_atl AL011971 44.7000 -56.3000 TS 45 0 29 52
1971186N34285 1971 64 NA NA ARLENE 1971-07-07 15:00:00 TS 45.6351 -54.6658 main 138 13 P_____________ AL011971 45.6351 -54.6658 TS 45 0 29 52
1971186N34285 1971 64 NA NA ARLENE 1971-07-07 18:00:00 ET 46.5000 -53.0000 45 hurdat_atl main 18 18 O_____________ hurdat_atl AL011971 46.5000 -53.0000 EX 45 -4 27 57
1971186N34285 1971 64 NA NA ARLENE 1971-07-07 21:00:00 ET 47.1300 -51.3096 main 107 107 P_____________ AL011971 47.1300 -51.3096 EX 40 -4 26 65
1971186N34285 1971 64 NA NA ARLENE 1971-07-08 00:00:00 ET 47.6000 -49.6000 35 hurdat_atl main 224 O_____________ hurdat_atl AL011971 47.6000 -49.6000 EX 35 -4 25 68

IBTrACS Databaseについて

本データベースは、米国NOAAが公開する1842年以降の世界の熱帯低気圧のベストトラックデータアーカイブInternational Best Track Archive for Climate Stewardship (IBTrACS)を、ウェブで閲覧しやすい形式に変換したものです。

最終更新日:2021-12-03